Time;durP1;ratioP1;P1;durP2;ratioP2;P2;SDS_P1;SDS_P2;PMS_P1;PMS_P2;Temp;Humidity;BMP_temperature;BMP_pressure;BME280_temperature;BME280_humidity;BME280_pressure;Samples;Min_cycle;Max_cycle;Signal;HPM_P1;HPM_P2
2023/01/23 00:01:15;;;;;;;21.58;10.68;;;2.70;99.90;;;;;;5044081;28;20586;-68
2023/01/23 00:03:41;;;;;;;26.27;10.50;;;2.70;99.90;;;;;;5049908;28;20124;-67
2023/01/23 00:06:12;;;;;;;20.45;10.50;;;2.70;99.90;;;;;;5045394;28;20183;-67
2023/01/23 00:08:38;;;;;;;;;;;2.70;99.90;;;;;;5030864;28;20108;-68
2023/01/23 00:11:10;;;;;;;14.30;6.60;;;2.70;99.90;;;;;;5048574;28;20003;-67
2023/01/23 00:13:36;;;;;;;19.35;8.07;;;2.80;99.90;;;;;;5051164;28;20044;-67
2023/01/23 00:16:06;;;;;;;22.67;9.98;;;2.80;99.90;;;;;;5038259;28;20037;-67
2023/01/23 00:18:32;;;;;;;20.50;9.27;;;2.70;99.90;;;;;;5044259;28;20033;-68
2023/01/23 00:21:02;;;;;;;20.25;9.55;;;2.80;99.90;;;;;;5049220;28;20553;-67
2023/01/23 00:23:28;;;;;;;15.38;8.38;;;2.80;99.90;;;;;;5041694;28;20071;-67
2023/01/23 00:25:53;;;;;;;18.83;9.15;;;2.80;99.90;;;;;;5045228;28;20067;-67
2023/01/23 00:28:19;;;;;;;19.70;8.98;;;2.80;99.90;;;;;;5050454;28;20033;-68
2023/01/23 00:30:44;;;;;;;19.55;10.02;;;2.80;99.90;;;;;;5051179;28;20033;-67
2023/01/23 00:33:10;;;;;;;18.52;9.52;;;2.80;99.90;;;;;;5041410;28;20047;-67
2023/01/23 00:35:35;;;;;;;17.55;9.60;;;2.80;99.90;;;;;;5049379;28;20063;-67
2023/01/23 00:38:01;;;;;;;23.98;10.32;;;2.80;99.90;;;;;;5049836;28;20045;-68
2023/01/23 00:40:27;;;;;;;19.02;10.20;;;2.80;99.90;;;;;;5042537;28;20044;-67
2023/01/23 00:42:52;;;;;;;19.08;9.63;;;2.80;99.90;;;;;;5045673;28;20471;-67
2023/01/23 00:45:18;;;;;;;20.48;10.13;;;2.80;99.90;;;;;;5054539;28;20041;-67
2023/01/23 00:47:44;;;;;;;21.35;10.45;;;2.80;99.90;;;;;;5055208;28;20494;-67
2023/01/23 00:50:10;;;;;;;19.98;9.32;;;2.80;99.90;;;;;;5045846;28;20037;-67
2023/01/23 00:52:36;;;;;;;23.45;10.63;;;2.80;99.90;;;;;;5050897;28;20116;-67
2023/01/23 00:55:02;;;;;;;14.32;6.22;;;2.80;99.90;;;;;;5052334;28;20129;-68
2023/01/23 00:57:27;;;;;;;20.80;9.00;;;2.80;99.90;;;;;;5039307;28;20061;-67
2023/01/23 00:59:53;;;;;;;20.67;9.02;;;2.90;99.90;;;;;;5049134;28;20075;-67
2023/01/23 01:02:19;;;;;;;15.75;8.90;;;2.90;99.90;;;;;;5052869;28;20132;-68
2023/01/23 01:04:44;;;;;;;24.90;10.25;;;2.80;99.90;;;;;;5047998;28;20084;-67
2023/01/23 01:07:10;;;;;;;21.50;8.85;;;2.90;99.90;;;;;;5052267;28;20044;-67
2023/01/23 01:09:36;;;;;;;18.92;9.32;;;2.80;99.90;;;;;;5054104;28;20033;-68
2023/01/23 01:12:01;;;;;;;21.75;8.93;;;2.90;99.90;;;;;;5054231;28;20045;-67
2023/01/23 01:14:27;;;;;;;17.70;9.88;;;2.90;99.90;;;;;;5046631;28;20479;-67
2023/01/23 01:16:52;;;;;;;20.77;9.80;;;2.80;99.90;;;;;;5052058;28;20063;-67
2023/01/23 01:19:18;;;;;;;21.60;9.38;;;2.90;99.90;;;;;;5053053;28;20044;-67
2023/01/23 01:21:44;;;;;;;18.55;9.68;;;2.90;99.90;;;;;;5052829;28;20399;-68
2023/01/23 01:24:10;;;;;;;17.80;9.60;;;2.90;99.90;;;;;;5045781;28;20044;-67
2023/01/23 01:26:35;;;;;;;19.58;9.52;;;2.90;99.90;;;;;;5053656;28;20077;-67
2023/01/23 01:29:01;;;;;;;22.27;10.30;;;2.90;99.90;;;;;;5053949;28;20080;-67
2023/01/23 01:31:27;;;;;;;21.42;10.45;;;2.90;99.90;;;;;;5040239;28;20045;-67
2023/01/23 01:33:52;;;;;;;20.00;9.77;;;2.90;99.90;;;;;;5053536;28;20037;-68
2023/01/23 01:36:20;;;;;;;19.80;9.07;;;2.90;99.90;;;;;;5052847;28;20041;-67
2023/01/23 01:38:46;;;;;;;19.15;9.60;;;2.90;99.90;;;;;;5054100;28;20044;-67
2023/01/23 01:41:13;;;;;;;18.95;9.38;;;2.90;99.90;;;;;;5048896;28;20029;-67
2023/01/23 01:43:39;;;;;;;19.48;9.43;;;2.90;99.90;;;;;;5046645;28;20041;-67
2023/01/23 01:46:04;;;;;;;20.38;10.57;;;3.00;99.90;;;;;;5050308;28;20052;-67
2023/01/23 01:48:43;;;;;;;22.80;10.45;;;3.00;99.90;;;;;;5051738;28;20479;-67
2023/01/23 01:51:21;;;;;;;18.20;9.23;;;3.00;99.90;;;;;;5052822;28;20175;-67
2023/01/23 01:53:53;;;;;;;19.52;9.90;;;3.00;99.90;;;;;;5051472;28;20056;-68
2023/01/23 01:56:19;;;;;;;19.25;9.90;;;3.00;99.90;;;;;;5039948;28;20040;-66
2023/01/23 01:58:48;;;;;;;17.08;10.18;;;3.00;99.90;;;;;;5041066;28;20029;-66
2023/01/23 02:01:14;;;;;;;17.58;9.20;;;3.00;99.90;;;;;;5053271;28;20052;-67
2023/01/23 02:03:40;;;;;;;19.80;9.77;;;3.10;99.90;;;;;;5047381;28;20055;-67
2023/01/23 02:06:06;;;;;;;26.73;10.65;;;3.00;99.90;;;;;;5051318;28;20041;-66
2023/01/23 02:08:43;;;;;;;20.77;11.05;;;3.00;99.90;;;;;;5053386;28;20408;-68
2023/01/23 02:11:09;;;;;;;20.38;9.40;;;3.10;99.90;;;;;;5052086;28;20040;-67
2023/01/23 02:13:37;;;;;;;20.58;10.02;;;3.00;99.90;;;;;;5039298;28;20519;-67
2023/01/23 02:16:10;;;;;;;23.88;10.10;;;3.00;99.90;;;;;;5043420;28;20079;-67
2023/01/23 02:18:41;;;;;;;20.95;10.15;;;3.00;99.90;;;;;;5051707;28;20040;-67
2023/01/23 02:21:07;;;;;;;21.00;9.95;;;3.00;99.90;;;;;;5041437;28;20115;-67
2023/01/23 02:23:45;;;;;;;22.10;10.68;;;3.00;99.90;;;;;;5049808;28;20039;-67
2023/01/23 02:26:17;;;;;;;21.10;9.75;;;3.10;99.90;;;;;;5050632;28;20487;-67
2023/01/23 02:28:48;;;;;;;24.25;10.50;;;3.10;99.90;;;;;;5048629;28;20045;-67
2023/01/23 02:31:14;;;;;;;25.05;10.25;;;3.10;99.90;;;;;;5045682;28;20045;-66
2023/01/23 02:33:45;;;;;;;21.15;10.07;;;3.10;99.90;;;;;;5051275;28;20402;-66
2023/01/23 02:36:11;;;;;;;20.45;10.20;;;3.10;99.90;;;;;;5051899;28;20041;-68
2023/01/23 02:39:00;;;;;;;23.38;10.75;;;3.10;99.90;;;;;;5038122;28;20044;-66
2023/01/23 02:41:37;;;;;;;20.45;10.65;;;3.10;99.90;;;;;;5044425;28;20407;-67
2023/01/23 02:44:15;;;;;;;18.85;9.88;;;3.00;99.90;;;;;;5053131;28;20049;-67
2023/01/23 02:46:41;;;;;;;22.20;10.40;;;3.10;99.90;;;;;;5043353;28;20134;-66
2023/01/23 02:49:07;;;;;;;22.20;10.35;;;3.00;99.90;;;;;;5050864;28;20071;-66
2023/01/23 02:51:32;;;;;;;20.65;10.38;;;3.00;99.90;;;;;;5052241;28;20150;-66
2023/01/23 02:53:58;;;;;;;22.13;10.07;;;3.10;99.90;;;;;;5048823;28;20520;-67
2023/01/23 02:56:24;;;;;;;22.27;10.52;;;3.10;99.90;;;;;;5050626;28;20047;-67
2023/01/23 03:01:34;;;;;;;22.75;10.05;;;3.00;99.90;;;;;;5052323;28;20087;-67
2023/01/23 03:04:05;;;;;;;24.65;11.57;;;3.00;99.90;;;;;;5040386;28;20112;-67
2023/01/23 03:06:35;;;;;;;27.83;10.37;;;3.10;99.90;;;;;;5050563;28;20037;-66
2023/01/23 03:09:06;;;;;;;24.20;10.32;;;3.10;99.90;;;;;;5052216;28;20052;-67
2023/01/23 03:11:33;;;;;;;26.77;10.90;;;3.10;99.90;;;;;;5042818;28;20040;-66
2023/01/23 03:13:59;;;;;;;22.05;10.50;;;3.10;99.90;;;;;;5050678;28;20047;-67
2023/01/23 03:16:25;;;;;;;22.40;10.77;;;3.10;99.90;;;;;;5052150;28;20033;-66
2023/01/23 03:18:50;;;;;;;26.45;10.85;;;3.10;99.90;;;;;;5046006;28;20033;-67
2023/01/23 03:21:16;;;;;;;18.92;9.60;;;3.10;99.90;;;;;;5045901;28;20063;-67
2023/01/23 03:23:45;;;;;;;18.35;9.88;;;3.10;99.90;;;;;;5050993;28;20391;-66
2023/01/23 03:26:11;;;;;;;22.38;10.63;;;3.10;99.90;;;;;;5048974;28;20407;-66
2023/01/23 03:31:20;;;;;;;21.60;9.70;;;3.10;99.90;;;;;;5050276;28;20145;-67
2023/01/23 03:33:47;;;;;;;22.58;10.13;;;3.00;99.90;;;;;;5051604;28;20431;-67
2023/01/23 03:36:13;;;;;;;22.75;11.50;;;3.10;99.90;;;;;;5039843;28;20126;-67
2023/01/23 03:41:23;;;;;;;19.70;9.82;;;3.10;99.90;;;;;;5051159;28;20064;-66
2023/01/23 03:41:25;;;;;;;20.17;10.35;;;3.00;99.90;;;;;;5031492;28;20056;-67
2023/01/23 03:43:51;;;;;;;20.75;10.40;;;3.00;99.90;;;;;;5045770;28;20034;-68
2023/01/23 03:46:16;;;;;;;20.48;10.00;;;3.00;99.90;;;;;;5050678;28;20182;-67
2023/01/23 03:48:42;;;;;;;21.05;9.82;;;3.10;99.90;;;;;;5050478;28;20043;-67
2023/01/23 03:51:08;;;;;;;22.02;10.10;;;3.00;99.90;;;;;;5050051;28;20033;-66
2023/01/23 03:53:33;;;;;;;21.17;10.23;;;3.10;99.90;;;;;;5042028;28;20029;-66
2023/01/23 03:55:59;;;;;;;19.83;9.98;;;3.10;99.90;;;;;;5058482;28;20041;-67
2023/01/23 03:58:25;;;;;;;21.08;10.73;;;3.00;99.90;;;;;;5049536;28;20045;-67
2023/01/23 04:00:51;;;;;;;24.15;11.00;;;3.00;99.90;;;;;;5041263;28;20091;-67
2023/01/23 04:03:17;;;;;;;22.08;10.45;;;3.00;99.90;;;;;;5048625;28;20029;-66
2023/01/23 04:05:42;;;;;;;27.83;11.02;;;3.00;99.90;;;;;;5050809;28;20032;-67
2023/01/23 04:08:08;;;;;;;24.98;11.20;;;3.00;99.90;;;;;;5050574;28;20086;-66
2023/01/23 04:10:33;;;;;;;22.40;10.50;;;3.00;99.90;;;;;;5037141;28;20124;-67
2023/01/23 04:12:59;;;;;;;24.55;10.68;;;3.00;99.90;;;;;;5046827;28;20041;-67
2023/01/23 04:15:24;;;;;;;23.20;10.77;;;3.00;99.90;;;;;;5050776;28;20045;-68
2023/01/23 04:17:50;;;;;;;20.38;9.73;;;3.00;99.90;;;;;;5039761;28;20034;-67
2023/01/23 04:20:16;;;;;;;24.27;10.73;;;3.00;99.90;;;;;;5049029;28;20044;-67
2023/01/23 04:22:41;;;;;;;27.73;11.43;;;3.00;99.90;;;;;;5048808;28;20083;-66
2023/01/23 04:25:07;;;;;;;25.05;11.07;;;3.10;99.90;;;;;;5050116;28;20558;-68
2023/01/23 04:27:33;;;;;;;20.42;11.30;;;3.00;99.90;;;;;;5040987;28;20044;-68
2023/01/23 04:29:58;;;;;;;22.45;11.30;;;3.00;99.90;;;;;;5047290;28;20411;-66
2023/01/23 04:32:24;;;;;;;22.13;10.98;;;3.00;99.90;;;;;;5051031;28;20053;-68
2023/01/23 04:34:50;;;;;;;23.50;10.82;;;3.00;99.90;;;;;;5036946;28;20044;-67
2023/01/23 04:37:16;;;;;;;23.83;10.70;;;3.00;99.90;;;;;;5047433;28;20048;-67
2023/01/23 04:39:42;;;;;;;21.70;10.55;;;3.00;99.90;;;;;;5048865;28;20045;-67
2023/01/23 04:42:08;;;;;;;23.83;10.80;;;3.00;99.90;;;;;;5049316;28;20041;-67
2023/01/23 04:44:34;;;;;;;20.48;10.55;;;3.00;99.90;;;;;;5038894;28;20090;-68
2023/01/23 04:47:00;;;;;;;22.40;10.80;;;3.00;99.90;;;;;;5048647;28;20117;-67
2023/01/23 04:49:26;;;;;;;23.33;11.02;;;3.00;99.90;;;;;;5049993;28;20044;-67
2023/01/23 04:51:52;;;;;;;24.35;11.25;;;3.00;99.90;;;;;;5038284;28;20071;-67
2023/01/23 04:54:19;;;;;;;19.73;10.68;;;3.00;99.90;;;;;;5049274;28;20049;-68
2023/01/23 04:56:45;;;;;;;23.33;11.38;;;2.90;99.90;;;;;;5050677;28;20041;-67
2023/01/23 04:59:12;;;;;;;27.67;11.30;;;3.00;99.90;;;;;;5042423;28;20051;-67
2023/01/23 05:01:38;;;;;;;20.92;11.40;;;3.00;99.90;;;;;;5050025;28;20044;-68
2023/01/23 05:04:04;;;;;;;22.70;11.23;;;3.00;99.90;;;;;;5048903;28;20380;-67
2023/01/23 05:06:29;;;;;;;23.88;11.50;;;3.00;99.90;;;;;;5044508;28;20090;-67
2023/01/23 05:08:55;;;;;;;24.58;11.15;;;3.00;99.90;;;;;;5041763;28;20029;-67
2023/01/23 05:11:21;;;;;;;24.63;11.82;;;3.00;99.90;;;;;;5048087;28;20496;-67
2023/01/23 05:13:46;;;;;;;22.63;11.80;;;3.00;99.90;;;;;;5049953;28;20151;-67
2023/01/23 05:16:12;;;;;;;21.70;10.43;;;2.90;99.90;;;;;;5041395;28;20116;-68
2023/01/23 05:18:38;;;;;;;20.25;10.73;;;3.00;99.90;;;;;;5047688;28;20445;-67
2023/01/23 05:21:04;;;;;;;19.40;9.73;;;3.00;99.90;;;;;;5048513;28;20041;-68
2023/01/23 05:23:30;;;;;;;22.92;11.15;;;3.00;99.90;;;;;;5042493;28;20480;-66
2023/01/23 05:25:55;;;;;;;21.10;10.93;;;3.00;99.90;;;;;;5051721;28;20033;-66
2023/01/23 05:28:21;;;;;;;20.85;10.77;;;2.90;99.90;;;;;;5066349;28;20032;-68
2023/01/23 05:30:47;;;;;;;22.35;11.02;;;2.90;99.90;;;;;;5054252;28;20122;-68
2023/01/23 05:33:12;;;;;;;24.70;11.60;;;2.90;99.90;;;;;;5050494;28;20084;-68
2023/01/23 05:35:38;;;;;;;26.45;11.30;;;2.90;99.90;;;;;;5050152;28;20064;-67
2023/01/23 05:38:04;;;;;;;23.15;11.35;;;2.90;99.90;;;;;;5051209;28;20169;-67
2023/01/23 05:40:30;;;;;;;21.23;10.80;;;2.90;99.90;;;;;;5045832;28;20475;-67
2023/01/23 05:42:56;;;;;;;22.02;11.30;;;2.90;99.90;;;;;;5047669;28;20040;-67
2023/01/23 05:45:21;;;;;;;23.83;10.85;;;2.90;99.90;;;;;;5050487;28;20029;-68
2023/01/23 05:47:47;;;;;;;25.42;12.23;;;2.90;99.90;;;;;;5053997;28;20037;-68
2023/01/23 05:50:15;;;;;;;28.27;10.95;;;2.90;99.90;;;;;;5041443;28;20539;-68
2023/01/23 05:52:41;;;;;;;22.48;10.82;;;2.90;99.90;;;;;;5050901;28;20036;-66
2023/01/23 05:55:06;;;;;;;23.33;11.45;;;2.90;99.90;;;;;;5052116;28;20048;-67
2023/01/23 05:57:33;;;;;;;23.60;11.18;;;2.90;99.90;;;;;;5050582;28;20048;-67
2023/01/23 05:59:58;;;;;;;22.98;10.50;;;2.90;99.90;;;;;;5040407;28;20503;-67
2023/01/23 06:02:24;;;;;;;26.42;11.27;;;2.90;99.90;;;;;;5044397;28;20048;-66
2023/01/23 06:04:49;;;;;;;20.83;10.57;;;2.90;99.90;;;;;;5047702;28;20119;-66
2023/01/23 06:07:17;;;;;;;20.80;10.15;;;2.90;99.90;;;;;;5049842;28;20045;-67
2023/01/23 06:09:42;;;;;;;20.30;11.10;;;2.90;99.90;;;;;;5050608;28;20044;-67
2023/01/23 06:12:09;;;;;;;21.95;10.30;;;2.90;99.90;;;;;;5041124;28;20102;-68
2023/01/23 06:14:34;;;;;;;23.58;10.93;;;2.90;99.90;;;;;;5051239;28;20116;-67
2023/01/23 06:17:02;;;;;;;26.85;12.57;;;2.90;99.90;;;;;;5049857;28;20642;-73
2023/01/23 06:19:31;;;;;;;21.77;11.13;;;2.90;99.90;;;;;;5044083;28;20041;-65
2023/01/23 06:21:56;;;;;;;20.40;10.93;;;2.90;99.90;;;;;;5043960;28;20045;-67
2023/01/23 06:24:22;;;;;;;23.65;11.32;;;2.90;99.90;;;;;;5045619;28;20101;-68
2023/01/23 06:26:47;;;;;;;24.65;12.02;;;3.00;99.90;;;;;;5029779;28;20376;-68
2023/01/23 06:29:13;;;;;;;22.63;11.57;;;3.00;99.90;;;;;;5041897;28;20113;-68
2023/01/23 06:31:39;;;;;;;24.00;11.98;;;3.00;99.90;;;;;;5047720;28;20052;-69
2023/01/23 06:34:06;;;;;;;22.50;10.77;;;3.00;99.90;;;;;;5047293;28;20072;-69
2023/01/23 06:36:32;;;;;;;23.33;11.43;;;3.00;99.90;;;;;;5043610;28;20090;-67
2023/01/23 06:38:58;;;;;;;24.40;11.65;;;3.00;99.90;;;;;;5047949;28;20033;-67
2023/01/23 06:41:24;;;;;;;21.13;10.93;;;3.00;99.90;;;;;;5051133;28;20037;-68
2023/01/23 06:43:50;;;;;;;22.75;11.93;;;3.00;99.90;;;;;;5046791;28;20173;-68
2023/01/23 06:46:15;;;;;;;21.42;11.05;;;2.90;99.90;;;;;;5037467;28;20029;-67
2023/01/23 06:48:41;;;;;;;25.33;11.70;;;3.00;99.90;;;;;;5052337;28;20029;-68
2023/01/23 06:51:06;;;;;;;21.85;11.00;;;3.00;99.90;;;;;;5050923;28;20185;-67
2023/01/23 06:53:32;;;;;;;19.98;10.45;;;3.00;99.90;;;;;;5044433;28;20082;-67
2023/01/23 06:56:03;;;;;;;22.65;10.63;;;3.00;99.90;;;;;;5047846;28;20101;-65
2023/01/23 06:58:29;;;;;;;23.75;10.48;;;3.00;99.90;;;;;;5043809;28;20122;-68
2023/01/23 07:00:55;;;;;;;21.15;11.02;;;3.00;99.90;;;;;;5047528;28;20096;-68
2023/01/23 07:03:21;;;;;;;20.35;10.85;;;3.00;99.90;;;;;;5044420;28;20033;-68
2023/01/23 07:05:46;;;;;;;20.33;11.10;;;2.90;99.90;;;;;;5049138;28;20056;-68
2023/01/23 07:08:12;;;;;;;21.85;10.93;;;3.00;99.90;;;;;;5047304;28;20039;-68
2023/01/23 07:10:38;;;;;;;20.17;10.77;;;3.00;99.90;;;;;;5037271;28;20509;-67
2023/01/23 07:13:05;;;;;;;20.67;10.68;;;3.00;99.90;;;;;;5050174;28;20120;-68
2023/01/23 07:15:32;;;;;;;19.92;10.73;;;2.90;99.90;;;;;;5051135;28;20095;-68
2023/01/23 07:17:58;;;;;;;22.42;10.73;;;2.90;99.90;;;;;;5046989;28;20032;-67
2023/01/23 07:20:26;;;;;;;21.70;10.50;;;2.90;99.90;;;;;;5049454;28;20052;-68
2023/01/23 07:22:56;;;;;;;22.17;10.90;;;2.90;99.90;;;;;;5049482;28;20106;-67
2023/01/23 07:25:24;;;;;;;20.33;11.23;;;2.90;99.90;;;;;;5044650;28;20475;-68
2023/01/23 07:27:49;;;;;;;23.13;11.00;;;2.90;99.90;;;;;;5041787;28;20048;-68
2023/01/23 07:30:16;;;;;;;24.20;10.57;;;3.00;99.90;;;;;;5050703;28;20040;-68
2023/01/23 07:32:41;;;;;;;22.10;11.15;;;2.90;99.90;;;;;;5047322;28;20098;-66
2023/01/23 07:35:08;;;;;;;20.80;11.02;;;2.90;99.90;;;;;;5043954;28;22171;-68
2023/01/23 07:37:34;;;;;;;24.40;11.23;;;2.90;99.90;;;;;;5048606;28;20407;-68
2023/01/23 07:39:59;;;;;;;23.38;10.93;;;3.00;99.90;;;;;;5049657;28;20120;-67
2023/01/23 07:42:25;;;;;;;21.65;10.73;;;3.00;99.90;;;;;;5039701;28;20110;-67
2023/01/23 07:44:51;;;;;;;25.05;11.82;;;3.00;99.90;;;;;;5046240;28;20035;-67
2023/01/23 07:47:16;;;;;;;19.40;10.95;;;3.00;99.90;;;;;;5049388;28;20048;-67
2023/01/23 07:49:42;;;;;;;24.40;11.88;;;3.00;99.90;;;;;;5049111;28;20033;-67
2023/01/23 07:52:08;;;;;;;23.08;11.63;;;3.00;99.90;;;;;;5044060;28;20045;-66
2023/01/23 07:56:59;;;;;;;23.35;11.38;;;3.10;99.90;;;;;;5094707;22;20071;-66
2023/01/23 07:59:24;;;;;;;22.85;10.98;;;3.00;99.90;;;;;;5068014;28;20387;-67
2023/01/23 08:01:51;;;;;;;26.75;11.73;;;3.00;99.90;;;;;;5078935;28;20058;-66
2023/01/23 08:04:17;;;;;;;23.02;11.07;;;3.10;99.90;;;;;;5090309;28;20093;-66
2023/01/23 08:06:43;;;;;;;22.13;11.02;;;3.10;99.90;;;;;;5084304;28;20072;-66
2023/01/23 08:09:09;;;;;;;23.73;11.30;;;3.10;99.90;;;;;;5078432;28;20079;-66
2023/01/23 08:11:35;;;;;;;23.67;11.80;;;3.10;99.90;;;;;;5081428;28;20049;-67
2023/01/23 08:14:00;;;;;;;23.17;11.68;;;3.10;99.90;;;;;;5070186;28;20131;-66
2023/01/23 08:16:26;;;;;;;22.92;11.52;;;3.10;99.90;;;;;;5073476;28;20043;-66
2023/01/23 08:18:53;;;;;;;22.90;11.40;;;3.10;99.90;;;;;;5078463;28;20036;-67
2023/01/23 08:21:19;;;;;;;25.90;12.25;;;3.10;99.90;;;;;;5087379;28;20055;-66
2023/01/23 08:23:45;;;;;;;23.92;11.90;;;3.20;99.90;;;;;;5087909;28;20130;-67
2023/01/23 08:26:13;;;;;;;24.20;12.38;;;3.20;99.90;;;;;;5081192;28;20036;-66
2023/01/23 08:28:42;;;;;;;22.75;11.38;;;3.20;99.90;;;;;;5087047;28;20477;-67
2023/01/23 08:31:09;;;;;;;23.92;11.48;;;3.30;99.90;;;;;;5088502;28;20048;-66
2023/01/23 08:33:36;;;;;;;21.50;11.63;;;3.30;99.90;;;;;;5081947;28;20040;-66
2023/01/23 08:36:04;;;;;;;26.63;12.52;;;3.30;99.90;;;;;;5089627;28;20089;-66
2023/01/23 08:38:30;;;;;;;22.63;11.75;;;3.40;99.90;;;;;;5090255;28;20489;-67
2023/01/23 08:40:58;;;;;;;25.83;12.07;;;3.40;99.90;;;;;;5086366;28;20130;-66
2023/01/23 08:43:24;;;;;;;22.75;11.52;;;3.40;99.90;;;;;;5075816;28;20040;-66
2023/01/23 08:45:52;;;;;;;21.38;11.10;;;3.40;99.90;;;;;;5068451;28;20055;-66
2023/01/23 08:48:19;;;;;;;27.67;11.90;;;3.40;99.90;;;;;;5067787;28;20307;-67
2023/01/23 08:50:45;;;;;;;21.98;12.20;;;3.40;99.90;;;;;;5070725;28;20465;-67
2023/01/23 08:53:12;;;;;;;21.50;11.88;;;3.40;99.90;;;;;;5070411;28;20032;-67
2023/01/23 08:55:38;;;;;;;22.70;11.63;;;3.40;99.90;;;;;;5070891;28;20043;-66
2023/01/23 08:58:06;;;;;;;24.70;11.23;;;3.50;99.90;;;;;;5070769;28;20040;-69
2023/01/23 09:00:32;;;;;;;20.42;10.63;;;3.50;99.90;;;;;;5085657;28;20028;-67
2023/01/23 09:03:02;;;;;;;21.70;11.30;;;3.60;99.90;;;;;;5087543;28;20046;-66
2023/01/23 09:05:28;;;;;;;21.33;11.05;;;3.60;99.90;;;;;;5098538;28;20442;-67
2023/01/23 09:07:54;;;;;;;22.75;10.98;;;3.60;99.90;;;;;;5090713;28;20032;-66
2023/01/23 09:10:20;;;;;;;22.35;11.32;;;3.60;99.90;;;;;;5093068;28;20036;-66
2023/01/23 09:12:46;;;;;;;21.35;10.98;;;3.70;99.90;;;;;;5083459;28;20177;-66
2023/01/23 09:15:12;;;;;;;24.48;11.95;;;3.70;99.90;;;;;;5071591;28;20139;-66
2023/01/23 09:17:37;;;;;;;22.75;11.95;;;3.70;99.90;;;;;;5090406;28;20457;-66
2023/01/23 09:20:05;;;;;;;19.70;10.45;;;3.70;99.90;;;;;;5086090;28;20048;-67
2023/01/23 09:22:31;;;;;;;25.13;12.02;;;3.70;99.90;;;;;;5072751;28;20099;-66
2023/01/23 09:24:57;;;;;;;22.73;11.23;;;3.80;99.90;;;;;;5083387;28;20040;-66
2023/01/23 09:27:23;;;;;;;18.50;10.88;;;3.80;99.90;;;;;;5090832;28;20028;-68
2023/01/23 09:29:49;;;;;;;23.00;10.70;;;3.80;99.90;;;;;;5079166;28;20115;-68
2023/01/23 09:32:15;;;;;;;20.65;10.85;;;3.80;99.90;;;;;;5086971;28;20132;-68
2023/01/23 09:34:41;;;;;;;16.30;9.57;;;3.80;99.90;;;;;;5083734;28;20173;-68
2023/01/23 09:37:06;;;;;;;20.17;10.93;;;3.80;99.90;;;;;;5082714;28;20119;-68
2023/01/23 09:39:32;;;;;;;21.73;10.80;;;3.90;99.90;;;;;;5080349;28;20067;-67
2023/01/23 09:42:06;;;;;;;20.23;10.60;;;3.90;99.90;;;;;;5080339;28;20067;-68
2023/01/23 09:44:39;;;;;;;23.92;10.68;;;3.90;99.90;;;;;;5087549;28;20452;-68
2023/01/23 09:47:33;;;;;;;18.23;10.45;;;3.90;99.90;;;;;;5069984;28;20048;-68
2023/01/23 09:50:07;;;;;;;20.75;10.80;;;3.90;99.90;;;;;;5077927;28;20043;-68
2023/01/23 09:52:41;;;;;;;21.80;10.02;;;4.00;99.90;;;;;;5080642;28;20058;-68
2023/01/23 09:55:21;;;;;;;17.88;10.20;;;4.00;99.90;;;;;;5078926;28;20490;-68
2023/01/23 09:57:54;;;;;;;20.17;10.82;;;3.90;99.90;;;;;;5080872;28;20475;-68
2023/01/23 10:00:31;;;;;;;25.85;10.95;;;4.00;99.90;;;;;;5077740;28;20032;-68
2023/01/23 10:03:00;;;;;;;20.85;10.48;;;4.00;99.90;;;;;;5079560;28;20040;-68
2023/01/23 10:05:45;;;;;;;17.85;10.02;;;4.00;99.90;;;;;;5082070;28;20101;-68
2023/01/23 10:08:55;;;;;;;17.50;10.50;;;4.10;99.90;;;;;;5082691;28;20040;-68
2023/01/23 10:11:34;;;;;;;17.98;10.20;;;4.10;99.90;;;;;;5082110;28;20032;-66
2023/01/23 10:14:24;;;;;;;17.98;9.73;;;4.10;99.90;;;;;;5078177;28;20040;-69
2023/01/23 10:17:17;;;;;;;18.00;10.25;;;4.10;99.90;;;;;;5103531;28;20036;-68
2023/01/23 10:19:55;;;;;;;19.90;10.52;;;4.10;99.90;;;;;;5083967;28;20028;-67
2023/01/23 10:22:58;;;;;;;18.00;9.45;;;4.10;99.90;;;;;;5084284;28;20043;-67
2023/01/23 10:25:34;;;;;;;16.95;9.63;;;4.20;99.90;;;;;;5090016;28;20101;-68
2023/01/23 10:28:10;;;;;;;19.50;9.88;;;4.20;99.90;;;;;;5089847;28;20043;-67
2023/01/23 10:30:39;;;;;;;19.27;10.38;;;4.20;99.90;;;;;;5082274;28;20045;-68
2023/01/23 10:33:13;;;;;;;19.10;10.10;;;4.30;99.90;;;;;;5083957;28;20037;-68
2023/01/23 10:35:52;;;;;;;17.95;9.95;;;4.20;99.90;;;;;;5078176;28;20383;-69
2023/01/23 10:38:42;;;;;;;15.60;9.30;;;4.30;99.90;;;;;;5070790;28;20241;-67
2023/01/23 10:41:12;;;;;;;18.08;9.32;;;4.30;99.90;;;;;;5080033;28;20491;-67
2023/01/23 10:43:39;;;;;;;17.95;9.52;;;4.30;99.90;;;;;;5078173;28;20032;-67
2023/01/23 10:46:14;;;;;;;16.95;9.88;;;4.30;99.90;;;;;;5083683;28;20253;-67
2023/01/23 10:48:45;;;;;;;18.13;9.45;;;4.30;99.90;;;;;;5089048;28;20031;-66
2023/01/23 10:51:26;;;;;;;;;;;4.30;99.90;;;;;;5083109;28;20494;-68
2023/01/23 10:54:07;;;;;;;14.90;8.57;;;4.30;99.90;;;;;;5092920;28;20301;-68
2023/01/23 10:56:35;;;;;;;;;;;4.30;99.90;;;;;;5078534;28;20124;-67
2023/01/23 10:59:02;;;;;;;16.88;9.02;;;4.30;99.90;;;;;;5070718;28;19916;-68
2023/01/23 11:01:33;;;;;;;13.98;7.78;;;4.30;99.90;;;;;;5068798;28;20119;-68
2023/01/23 11:04:19;;;;;;;19.27;9.65;;;4.40;99.90;;;;;;5082349;28;20072;-68
2023/01/23 11:07:03;;;;;;;16.38;8.93;;;4.50;99.90;;;;;;5070217;28;20033;-67
2023/01/23 11:09:30;;;;;;;16.85;9.65;;;4.60;99.90;;;;;;5071079;28;20041;-68
2023/01/23 11:12:13;;;;;;;10.13;5.40;;;4.60;99.90;;;;;;5068226;28;20073;-67
2023/01/23 11:14:38;;;;;;;18.52;9.35;;;4.50;99.90;;;;;;5082264;28;20399;-67
2023/01/23 11:17:17;;;;;;;20.15;9.63;;;4.50;99.90;;;;;;5086959;28;20050;-68
2023/01/23 11:19:45;;;;;;;17.70;8.88;;;4.60;99.90;;;;;;5082856;28;20039;-67
2023/01/23 11:22:26;;;;;;;18.70;9.15;;;4.60;99.90;;;;;;5082037;28;20040;-68
2023/01/23 11:24:51;;;;;;;14.55;8.38;;;4.70;99.90;;;;;;5079568;28;20040;-66
2023/01/23 11:27:25;;;;;;;15.40;6.68;;;4.60;99.90;;;;;;5083653;28;20058;-67
2023/01/23 11:30:09;;;;;;;18.40;8.80;;;4.60;99.90;;;;;;5085522;28;20036;-66
2023/01/23 11:32:50;;;;;;;10.85;5.18;;;4.60;99.90;;;;;;5079478;28;20096;-68
2023/01/23 11:35:26;;;;;;;20.35;9.60;;;4.60;99.90;;;;;;5085456;28;20044;-67
2023/01/23 11:37:54;;;;;;;17.35;9.30;;;4.70;99.90;;;;;;5079939;28;20102;-68
2023/01/23 11:40:20;;;;;;;18.30;9.93;;;4.70;99.90;;;;;;5078764;28;20037;-67
2023/01/23 11:42:46;;;;;;;15.65;9.00;;;4.80;99.90;;;;;;5066993;28;20090;-67
2023/01/23 11:46:06;;;;;;;16.25;9.32;;;4.80;99.90;;;;;;5078260;28;20032;-67
2023/01/23 11:49:04;;;;;;;16.77;9.85;;;4.80;99.90;;;;;;5061200;28;20039;-67
2023/01/23 11:51:42;;;;;;;17.90;9.10;;;4.90;99.90;;;;;;5082348;28;20035;-68
2023/01/23 11:54:59;;;;;;;20.73;9.23;;;4.90;99.90;;;;;;5098225;28;20055;-68
2023/01/23 11:57:43;;;;;;;18.98;9.10;;;4.90;99.90;;;;;;5076571;28;20067;-68
2023/01/23 12:00:14;;;;;;;16.42;9.52;;;5.00;99.90;;;;;;5085415;28;20042;-68
2023/01/23 12:02:40;;;;;;;;;;;5.00;99.90;;;;;;5086399;28;20089;-68
2023/01/23 12:05:24;;;;;;;16.10;9.05;;;5.00;99.90;;;;;;5086382;28;19975;-68
2023/01/23 12:08:20;;;;;;;15.57;8.88;;;5.00;99.90;;;;;;5082586;28;20040;-68
2023/01/23 12:11:12;;;;;;;15.88;9.60;;;5.00;99.90;;;;;;5082837;28;20546;-68
2023/01/23 12:13:46;;;;;;;17.83;9.27;;;5.00;99.90;;;;;;5088637;28;20689;-68
2023/01/23 12:16:44;;;;;;;15.13;9.15;;;5.00;99.90;;;;;;5083995;28;20081;-68
2023/01/23 12:19:28;;;;;;;17.33;8.98;;;5.00;99.90;;;;;;5095482;28;20044;-68
2023/01/23 12:22:22;;;;;;;15.35;9.05;;;5.00;99.90;;;;;;5080837;28;20082;-68
2023/01/23 12:25:00;;;;;;;18.50;9.45;;;5.10;99.90;;;;;;5097286;28;20072;-67
2023/01/23 12:27:47;;;;;;;18.80;9.68;;;5.10;99.90;;;;;;5084769;28;20089;-67
2023/01/23 12:30:37;;;;;;;19.15;9.35;;;5.10;99.90;;;;;;5085801;28;20037;-68
2023/01/23 12:33:22;;;;;;;16.35;8.95;;;5.20;99.90;;;;;;5079528;28;20040;-67
2023/01/23 12:36:06;;;;;;;18.70;9.07;;;5.20;99.90;;;;;;5081924;28;20089;-67
2023/01/23 12:39:02;;;;;;;20.05;10.00;;;5.10;99.90;;;;;;5088114;28;20036;-67
2023/01/23 12:41:38;;;;;;;15.85;9.45;;;5.20;99.90;;;;;;5085164;28;20039;-68
2023/01/23 12:44:24;;;;;;;15.15;8.82;;;5.10;99.90;;;;;;5084912;28;20128;-68
2023/01/23 12:47:07;;;;;;;15.73;9.32;;;5.10;99.90;;;;;;5089274;28;20048;-68
2023/01/23 12:49:42;;;;;;;16.67;9.63;;;5.00;99.90;;;;;;5079939;28;20517;-68
2023/01/23 12:52:23;;;;;;;15.38;8.75;;;5.10;99.90;;;;;;5076582;28;20139;-68
2023/01/23 12:54:58;;;;;;;16.60;9.10;;;5.10;99.90;;;;;;5070051;28;20040;-68
2023/01/23 12:57:42;;;;;;;18.02;9.65;;;5.10;99.90;;;;;;5075428;28;20063;-68
2023/01/23 13:00:23;;;;;;;16.25;8.85;;;5.10;99.90;;;;;;5081748;28;20375;-67
2023/01/23 13:03:15;;;;;;;16.53;9.17;;;5.10;99.90;;;;;;5085744;28;20095;-68